sensor_id;sensor_type;location;lat;lon;timestamp;P1;durP1;ratioP1;P2;durP2;ratioP2
19521;SDS011;9905;52.126;5.596;2023-04-16T00:01:00;5.22;;;4.70;;
19521;SDS011;9905;52.126;5.596;2023-04-16T00:03:26;5.82;;;5.32;;
19521;SDS011;9905;52.126;5.596;2023-04-16T00:05:53;5.75;;;4.90;;
19521;SDS011;9905;52.126;5.596;2023-04-16T00:08:22;5.57;;;5.15;;
19521;SDS011;9905;52.126;5.596;2023-04-16T00:10:49;10.95;;;5.70;;
19521;SDS011;9905;52.126;5.596;2023-04-16T00:13:16;7.05;;;6.38;;
19521;SDS011;9905;52.126;5.596;2023-04-16T00:15:43;7.53;;;5.43;;
19521;SDS011;9905;52.126;5.596;2023-04-16T00:18:09;6.35;;;5.78;;
19521;SDS011;9905;52.126;5.596;2023-04-16T00:20:36;5.80;;;4.90;;
19521;SDS011;9905;52.126;5.596;2023-04-16T00:23:03;7.20;;;5.70;;
19521;SDS011;9905;52.126;5.596;2023-04-16T00:25:31;8.65;;;6.13;;
19521;SDS011;9905;52.126;5.596;2023-04-16T00:27:58;11.75;;;5.90;;
19521;SDS011;9905;52.126;5.596;2023-04-16T00:30:24;5.97;;;5.45;;
19521;SDS011;9905;52.126;5.596;2023-04-16T00:32:51;10.77;;;6.68;;
19521;SDS011;9905;52.126;5.596;2023-04-16T00:35:18;8.52;;;6.90;;
19521;SDS011;9905;52.126;5.596;2023-04-16T00:37:45;11.18;;;7.57;;
19521;SDS011;9905;52.126;5.596;2023-04-16T00:40:11;7.80;;;6.82;;
19521;SDS011;9905;52.126;5.596;2023-04-16T00:42:39;11.38;;;7.20;;
19521;SDS011;9905;52.126;5.596;2023-04-16T00:45:07;12.25;;;7.10;;
19521;SDS011;9905;52.126;5.596;2023-04-16T00:47:34;14.07;;;7.32;;
19521;SDS011;9905;52.126;5.596;2023-04-16T00:50:01;15.55;;;8.18;;
19521;SDS011;9905;52.126;5.596;2023-04-16T00:52:28;9.68;;;7.63;;
19521;SDS011;9905;52.126;5.596;2023-04-16T00:54:56;12.18;;;7.65;;
19521;SDS011;9905;52.126;5.596;2023-04-16T00:57:24;12.90;;;7.82;;
19521;SDS011;9905;52.126;5.596;2023-04-16T00:59:53;13.27;;;8.00;;
19521;SDS011;9905;52.126;5.596;2023-04-16T01:02:20;9.52;;;7.82;;
19521;SDS011;9905;52.126;5.596;2023-04-16T01:04:47;14.50;;;8.70;;
19521;SDS011;9905;52.126;5.596;2023-04-16T01:07:14;12.38;;;7.82;;
19521;SDS011;9905;52.126;5.596;2023-04-16T01:09:42;12.45;;;8.88;;
19521;SDS011;9905;52.126;5.596;2023-04-16T01:12:08;14.65;;;8.63;;
19521;SDS011;9905;52.126;5.596;2023-04-16T01:14:35;12.80;;;8.25;;
19521;SDS011;9905;52.126;5.596;2023-04-16T01:17:03;10.70;;;8.40;;
19521;SDS011;9905;52.126;5.596;2023-04-16T01:19:30;19.45;;;8.50;;
19521;SDS011;9905;52.126;5.596;2023-04-16T01:22:01;12.98;;;9.00;;
19521;SDS011;9905;52.126;5.596;2023-04-16T01:24:28;10.77;;;8.50;;
19521;SDS011;9905;52.126;5.596;2023-04-16T01:26:56;13.30;;;8.30;;
19521;SDS011;9905;52.126;5.596;2023-04-16T01:29:22;12.90;;;8.68;;
19521;SDS011;9905;52.126;5.596;2023-04-16T01:31:49;10.57;;;8.07;;
19521;SDS011;9905;52.126;5.596;2023-04-16T01:34:16;14.55;;;8.95;;
19521;SDS011;9905;52.126;5.596;2023-04-16T01:36:43;13.68;;;8.05;;
19521;SDS011;9905;52.126;5.596;2023-04-16T01:39:11;12.38;;;8.20;;
19521;SDS011;9905;52.126;5.596;2023-04-16T01:41:39;15.95;;;8.68;;
19521;SDS011;9905;52.126;5.596;2023-04-16T01:44:06;12.45;;;8.93;;
19521;SDS011;9905;52.126;5.596;2023-04-16T01:46:33;16.10;;;8.50;;
19521;SDS011;9905;52.126;5.596;2023-04-16T01:49:01;15.65;;;9.05;;
19521;SDS011;9905;52.126;5.596;2023-04-16T01:51:29;12.75;;;7.88;;
19521;SDS011;9905;52.126;5.596;2023-04-16T01:53:56;17.50;;;9.13;;
19521;SDS011;9905;52.126;5.596;2023-04-16T01:56:24;18.23;;;8.20;;
19521;SDS011;9905;52.126;5.596;2023-04-16T01:58:51;15.75;;;9.18;;
19521;SDS011;9905;52.126;5.596;2023-04-16T02:01:18;22.88;;;9.18;;
19521;SDS011;9905;52.126;5.596;2023-04-16T02:03:45;13.45;;;8.85;;
19521;SDS011;9905;52.126;5.596;2023-04-16T02:06:12;16.52;;;8.57;;
19521;SDS011;9905;52.126;5.596;2023-04-16T02:08:39;16.27;;;9.15;;
19521;SDS011;9905;52.126;5.596;2023-04-16T02:11:06;18.00;;;9.45;;
19521;SDS011;9905;52.126;5.596;2023-04-16T02:13:34;15.43;;;9.02;;
19521;SDS011;9905;52.126;5.596;2023-04-16T02:16:00;15.50;;;8.57;;
19521;SDS011;9905;52.126;5.596;2023-04-16T02:18:27;13.65;;;9.07;;
19521;SDS011;9905;52.126;5.596;2023-04-16T02:20:56;22.05;;;11.00;;
19521;SDS011;9905;52.126;5.596;2023-04-16T02:23:23;17.35;;;9.30;;
19521;SDS011;9905;52.126;5.596;2023-04-16T02:25:50;15.32;;;9.95;;
19521;SDS011;9905;52.126;5.596;2023-04-16T02:28:17;15.13;;;9.80;;
19521;SDS011;9905;52.126;5.596;2023-04-16T02:30:45;16.25;;;9.60;;
19521;SDS011;9905;52.126;5.596;2023-04-16T02:33:12;18.75;;;10.73;;
19521;SDS011;9905;52.126;5.596;2023-04-16T02:35:38;16.52;;;9.82;;
19521;SDS011;9905;52.126;5.596;2023-04-16T02:38:06;14.20;;;9.93;;
19521;SDS011;9905;52.126;5.596;2023-04-16T02:40:33;22.92;;;10.77;;
19521;SDS011;9905;52.126;5.596;2023-04-16T02:42:59;18.00;;;10.55;;
19521;SDS011;9905;52.126;5.596;2023-04-16T02:45:26;17.58;;;10.05;;
19521;SDS011;9905;52.126;5.596;2023-04-16T02:47:56;19.15;;;11.38;;
19521;SDS011;9905;52.126;5.596;2023-04-16T02:50:23;17.52;;;11.00;;
19521;SDS011;9905;52.126;5.596;2023-04-16T02:52:50;17.83;;;10.77;;
19521;SDS011;9905;52.126;5.596;2023-04-16T02:55:17;23.98;;;11.55;;
19521;SDS011;9905;52.126;5.596;2023-04-16T02:57:44;19.98;;;11.13;;
19521;SDS011;9905;52.126;5.596;2023-04-16T03:00:11;19.50;;;11.25;;
19521;SDS011;9905;52.126;5.596;2023-04-16T03:02:38;19.33;;;12.07;;
19521;SDS011;9905;52.126;5.596;2023-04-16T03:05:06;19.80;;;11.02;;
19521;SDS011;9905;52.126;5.596;2023-04-16T03:07:34;18.20;;;11.13;;
19521;SDS011;9905;52.126;5.596;2023-04-16T03:10:03;19.13;;;11.40;;
19521;SDS011;9905;52.126;5.596;2023-04-16T03:12:31;21.13;;;12.05;;
19521;SDS011;9905;52.126;5.596;2023-04-16T03:14:57;22.25;;;11.65;;
19521;SDS011;9905;52.126;5.596;2023-04-16T03:17:24;18.85;;;10.95;;
19521;SDS011;9905;52.126;5.596;2023-04-16T03:19:51;22.63;;;12.65;;
19521;SDS011;9905;52.126;5.596;2023-04-16T03:22:19;19.75;;;12.25;;
19521;SDS011;9905;52.126;5.596;2023-04-16T03:24:46;20.13;;;11.73;;
19521;SDS011;9905;52.126;5.596;2023-04-16T03:27:12;23.40;;;12.30;;
19521;SDS011;9905;52.126;5.596;2023-04-16T03:29:39;22.10;;;13.25;;
19521;SDS011;9905;52.126;5.596;2023-04-16T03:32:06;25.67;;;12.90;;
19521;SDS011;9905;52.126;5.596;2023-04-16T03:34:33;20.88;;;12.73;;
19521;SDS011;9905;52.126;5.596;2023-04-16T03:37:00;23.38;;;15.15;;
19521;SDS011;9905;52.126;5.596;2023-04-16T03:39:30;26.95;;;15.18;;
19521;SDS011;9905;52.126;5.596;2023-04-16T03:41:57;30.48;;;15.90;;
19521;SDS011;9905;52.126;5.596;2023-04-16T03:44:24;22.80;;;15.75;;
19521;SDS011;9905;52.126;5.596;2023-04-16T03:46:51;26.63;;;15.20;;
19521;SDS011;9905;52.126;5.596;2023-04-16T03:49:17;29.08;;;15.18;;
19521;SDS011;9905;52.126;5.596;2023-04-16T03:51:44;25.80;;;15.45;;
19521;SDS011;9905;52.126;5.596;2023-04-16T03:54:11;25.33;;;15.07;;
19521;SDS011;9905;52.126;5.596;2023-04-16T03:56:39;27.65;;;14.43;;
19521;SDS011;9905;52.126;5.596;2023-04-16T03:59:07;26.27;;;14.40;;
19521;SDS011;9905;52.126;5.596;2023-04-16T04:01:33;22.00;;;14.52;;
19521;SDS011;9905;52.126;5.596;2023-04-16T04:04:00;26.27;;;15.50;;
19521;SDS011;9905;52.126;5.596;2023-04-16T04:06:27;22.65;;;15.07;;
19521;SDS011;9905;52.126;5.596;2023-04-16T04:08:54;32.22;;;15.40;;
19521;SDS011;9905;52.126;5.596;2023-04-16T04:11:20;26.58;;;13.98;;
19521;SDS011;9905;52.126;5.596;2023-04-16T04:13:48;23.25;;;14.90;;
19521;SDS011;9905;52.126;5.596;2023-04-16T04:16:15;26.67;;;15.63;;
19521;SDS011;9905;52.126;5.596;2023-04-16T04:18:42;24.45;;;13.45;;
19521;SDS011;9905;52.126;5.596;2023-04-16T04:21:08;20.92;;;12.77;;
19521;SDS011;9905;52.126;5.596;2023-04-16T04:23:35;21.63;;;13.20;;
19521;SDS011;9905;52.126;5.596;2023-04-16T04:26:02;22.77;;;13.30;;
19521;SDS011;9905;52.126;5.596;2023-04-16T04:28:31;22.08;;;12.95;;
19521;SDS011;9905;52.126;5.596;2023-04-16T04:30:59;20.75;;;12.73;;
19521;SDS011;9905;52.126;5.596;2023-04-16T04:33:26;22.95;;;12.77;;
19521;SDS011;9905;52.126;5.596;2023-04-16T04:35:53;21.23;;;13.40;;
19521;SDS011;9905;52.126;5.596;2023-04-16T04:38:20;24.13;;;12.90;;
19521;SDS011;9905;52.126;5.596;2023-04-16T04:40:49;20.48;;;13.43;;
19521;SDS011;9905;52.126;5.596;2023-04-16T04:43:16;19.33;;;13.07;;
19521;SDS011;9905;52.126;5.596;2023-04-16T04:45:43;18.73;;;11.98;;
19521;SDS011;9905;52.126;5.596;2023-04-16T04:48:11;15.85;;;11.80;;
19521;SDS011;9905;52.126;5.596;2023-04-16T04:50:38;14.15;;;11.95;;
19521;SDS011;9905;52.126;5.596;2023-04-16T04:53:05;20.27;;;11.70;;
19521;SDS011;9905;52.126;5.596;2023-04-16T04:55:34;18.50;;;12.48;;
19521;SDS011;9905;52.126;5.596;2023-04-16T04:58:01;19.77;;;13.18;;
19521;SDS011;9905;52.126;5.596;2023-04-16T05:00:28;17.40;;;12.75;;
19521;SDS011;9905;52.126;5.596;2023-04-16T05:02:55;19.75;;;13.35;;
19521;SDS011;9905;52.126;5.596;2023-04-16T05:05:23;20.98;;;13.32;;
19521;SDS011;9905;52.126;5.596;2023-04-16T05:07:50;20.60;;;12.73;;
19521;SDS011;9905;52.126;5.596;2023-04-16T05:10:17;17.33;;;12.73;;
19521;SDS011;9905;52.126;5.596;2023-04-16T05:12:44;17.27;;;12.57;;
19521;SDS011;9905;52.126;5.596;2023-04-16T05:15:11;20.88;;;13.95;;
19521;SDS011;9905;52.126;5.596;2023-04-16T05:17:38;24.30;;;13.27;;
19521;SDS011;9905;52.126;5.596;2023-04-16T05:20:05;15.10;;;12.00;;
19521;SDS011;9905;52.126;5.596;2023-04-16T05:22:34;18.35;;;11.65;;
19521;SDS011;9905;52.126;5.596;2023-04-16T05:25:01;16.42;;;12.23;;
19521;SDS011;9905;52.126;5.596;2023-04-16T05:27:28;17.48;;;12.70;;
19521;SDS011;9905;52.126;5.596;2023-04-16T05:29:54;15.27;;;12.05;;
19521;SDS011;9905;52.126;5.596;2023-04-16T05:32:21;17.38;;;13.52;;
19521;SDS011;9905;52.126;5.596;2023-04-16T05:34:49;19.85;;;13.20;;
19521;SDS011;9905;52.126;5.596;2023-04-16T05:37:16;19.67;;;13.35;;
19521;SDS011;9905;52.126;5.596;2023-04-16T05:39:44;19.00;;;12.52;;
19521;SDS011;9905;52.126;5.596;2023-04-16T05:42:11;16.73;;;13.20;;
19521;SDS011;9905;52.126;5.596;2023-04-16T05:44:38;22.35;;;13.13;;
19521;SDS011;9905;52.126;5.596;2023-04-16T05:47:05;20.30;;;12.45;;
19521;SDS011;9905;52.126;5.596;2023-04-16T05:49:33;19.27;;;12.80;;
19521;SDS011;9905;52.126;5.596;2023-04-16T05:52:00;19.08;;;12.88;;
19521;SDS011;9905;52.126;5.596;2023-04-16T05:54:26;20.27;;;12.90;;
19521;SDS011;9905;52.126;5.596;2023-04-16T05:56:55;22.48;;;13.13;;
19521;SDS011;9905;52.126;5.596;2023-04-16T05:59:21;20.15;;;14.00;;
19521;SDS011;9905;52.126;5.596;2023-04-16T06:01:48;14.80;;;12.88;;
19521;SDS011;9905;52.126;5.596;2023-04-16T06:04:15;17.27;;;12.18;;
19521;SDS011;9905;52.126;5.596;2023-04-16T06:06:41;19.27;;;13.45;;
19521;SDS011;9905;52.126;5.596;2023-04-16T06:09:08;25.58;;;14.85;;
19521;SDS011;9905;52.126;5.596;2023-04-16T06:11:36;22.67;;;13.30;;
19521;SDS011;9905;52.126;5.596;2023-04-16T06:14:04;20.88;;;12.60;;
19521;SDS011;9905;52.126;5.596;2023-04-16T06:16:31;15.10;;;12.68;;
19521;SDS011;9905;52.126;5.596;2023-04-16T06:18:57;18.55;;;12.88;;
19521;SDS011;9905;52.126;5.596;2023-04-16T06:21:24;16.23;;;13.13;;
19521;SDS011;9905;52.126;5.596;2023-04-16T06:23:51;18.77;;;12.75;;
19521;SDS011;9905;52.126;5.596;2023-04-16T06:26:19;18.00;;;13.52;;
19521;SDS011;9905;52.126;5.596;2023-04-16T06:28:45;20.50;;;14.30;;
19521;SDS011;9905;52.126;5.596;2023-04-16T06:31:13;17.65;;;12.65;;
19521;SDS011;9905;52.126;5.596;2023-04-16T06:33:40;19.77;;;12.80;;
19521;SDS011;9905;52.126;5.596;2023-04-16T06:36:07;19.85;;;13.10;;
19521;SDS011;9905;52.126;5.596;2023-04-16T06:38:35;18.13;;;13.63;;
19521;SDS011;9905;52.126;5.596;2023-04-16T06:41:02;17.77;;;13.25;;
19521;SDS011;9905;52.126;5.596;2023-04-16T06:43:29;21.73;;;13.65;;
19521;SDS011;9905;52.126;5.596;2023-04-16T06:45:57;22.17;;;14.25;;
19521;SDS011;9905;52.126;5.596;2023-04-16T06:48:25;21.10;;;14.30;;
19521;SDS011;9905;52.126;5.596;2023-04-16T06:50:53;21.13;;;14.98;;
19521;SDS011;9905;52.126;5.596;2023-04-16T06:53:20;19.00;;;13.77;;
19521;SDS011;9905;52.126;5.596;2023-04-16T06:55:47;25.50;;;15.23;;
19521;SDS011;9905;52.126;5.596;2023-04-16T06:58:13;27.50;;;16.05;;
19521;SDS011;9905;52.126;5.596;2023-04-16T07:00:40;26.67;;;15.57;;
19521;SDS011;9905;52.126;5.596;2023-04-16T07:03:07;26.85;;;14.88;;
19521;SDS011;9905;52.126;5.596;2023-04-16T07:05:35;19.33;;;15.40;;
19521;SDS011;9905;52.126;5.596;2023-04-16T07:08:01;22.73;;;15.77;;
19521;SDS011;9905;52.126;5.596;2023-04-16T07:10:28;25.45;;;16.67;;
19521;SDS011;9905;52.126;5.596;2023-04-16T07:12:55;28.58;;;16.10;;
19521;SDS011;9905;52.126;5.596;2023-04-16T07:15:22;23.45;;;15.23;;
19521;SDS011;9905;52.126;5.596;2023-04-16T07:17:49;28.98;;;16.48;;
19521;SDS011;9905;52.126;5.596;2023-04-16T07:20:16;25.35;;;16.20;;
19521;SDS011;9905;52.126;5.596;2023-04-16T07:22:44;24.73;;;14.82;;
19521;SDS011;9905;52.126;5.596;2023-04-16T07:25:11;23.65;;;14.75;;
19521;SDS011;9905;52.126;5.596;2023-04-16T07:27:37;29.50;;;15.20;;
19521;SDS011;9905;52.126;5.596;2023-04-16T07:30:04;27.90;;;14.43;;
19521;SDS011;9905;52.126;5.596;2023-04-16T07:32:33;25.60;;;15.45;;
19521;SDS011;9905;52.126;5.596;2023-04-16T07:35:00;23.48;;;15.00;;
19521;SDS011;9905;52.126;5.596;2023-04-16T07:37:27;20.90;;;15.48;;
19521;SDS011;9905;52.126;5.596;2023-04-16T07:39:56;27.85;;;14.70;;
19521;SDS011;9905;52.126;5.596;2023-04-16T07:42:24;25.35;;;14.48;;
19521;SDS011;9905;52.126;5.596;2023-04-16T07:44:51;24.33;;;14.27;;
19521;SDS011;9905;52.126;5.596;2023-04-16T07:47:18;23.20;;;14.45;;
19521;SDS011;9905;52.126;5.596;2023-04-16T07:49:46;19.13;;;14.15;;
19521;SDS011;9905;52.126;5.596;2023-04-16T07:52:13;22.73;;;14.23;;
19521;SDS011;9905;52.126;5.596;2023-04-16T07:54:40;24.13;;;15.40;;
19521;SDS011;9905;52.126;5.596;2023-04-16T07:57:08;19.00;;;14.18;;
19521;SDS011;9905;52.126;5.596;2023-04-16T07:59:35;25.48;;;14.90;;
19521;SDS011;9905;52.126;5.596;2023-04-16T08:02:02;21.77;;;15.02;;
19521;SDS011;9905;52.126;5.596;2023-04-16T08:04:30;22.85;;;14.52;;
19521;SDS011;9905;52.126;5.596;2023-04-16T08:06:56;22.40;;;14.35;;
19521;SDS011;9905;52.126;5.596;2023-04-16T08:09:25;22.30;;;14.75;;
19521;SDS011;9905;52.126;5.596;2023-04-16T08:11:52;20.27;;;14.57;;
19521;SDS011;9905;52.126;5.596;2023-04-16T08:14:20;26.25;;;15.55;;
19521;SDS011;9905;52.126;5.596;2023-04-16T08:16:47;24.83;;;14.63;;
19521;SDS011;9905;52.126;5.596;2023-04-16T08:19:14;23.13;;;14.45;;
19521;SDS011;9905;52.126;5.596;2023-04-16T08:21:41;21.13;;;14.57;;
19521;SDS011;9905;52.126;5.596;2023-04-16T08:24:07;20.23;;;13.93;;
19521;SDS011;9905;52.126;5.596;2023-04-16T08:26:34;23.10;;;14.88;;
19521;SDS011;9905;52.126;5.596;2023-04-16T08:29:01;24.55;;;15.77;;
19521;SDS011;9905;52.126;5.596;2023-04-16T08:31:29;23.02;;;13.82;;
19521;SDS011;9905;52.126;5.596;2023-04-16T08:33:56;20.02;;;13.68;;
19521;SDS011;9905;52.126;5.596;2023-04-16T08:36:23;18.75;;;13.75;;
19521;SDS011;9905;52.126;5.596;2023-04-16T08:38:49;27.60;;;15.13;;
19521;SDS011;9905;52.126;5.596;2023-04-16T08:41:16;23.63;;;13.88;;
19521;SDS011;9905;52.126;5.596;2023-04-16T08:43:45;20.88;;;14.40;;
19521;SDS011;9905;52.126;5.596;2023-04-16T08:46:15;19.60;;;13.68;;
19521;SDS011;9905;52.126;5.596;2023-04-16T08:48:43;22.80;;;14.40;;
19521;SDS011;9905;52.126;5.596;2023-04-16T08:51:14;22.60;;;14.25;;
19521;SDS011;9905;52.126;5.596;2023-04-16T08:53:47;18.13;;;13.25;;
19521;SDS011;9905;52.126;5.596;2023-04-16T08:56:17;27.77;;;14.30;;
19521;SDS011;9905;52.126;5.596;2023-04-16T08:58:46;23.63;;;13.32;;
19521;SDS011;9905;52.126;5.596;2023-04-16T09:01:15;19.45;;;13.77;;
19521;SDS011;9905;52.126;5.596;2023-04-16T09:03:44;25.13;;;14.35;;
19521;SDS011;9905;52.126;5.596;2023-04-16T09:06:12;19.15;;;13.10;;
19521;SDS011;9905;52.126;5.596;2023-04-16T09:08:40;21.30;;;14.27;;
19521;SDS011;9905;52.126;5.596;2023-04-16T09:11:08;18.75;;;13.20;;
19521;SDS011;9905;52.126;5.596;2023-04-16T09:13:36;22.42;;;14.07;;
19521;SDS011;9905;52.126;5.596;2023-04-16T09:16:03;27.77;;;13.70;;
19521;SDS011;9905;52.126;5.596;2023-04-16T09:18:31;24.67;;;13.45;;
19521;SDS011;9905;52.126;5.596;2023-04-16T09:20:59;20.23;;;13.63;;
19521;SDS011;9905;52.126;5.596;2023-04-16T09:23:27;25.95;;;15.15;;
19521;SDS011;9905;52.126;5.596;2023-04-16T09:25:54;20.80;;;14.30;;
19521;SDS011;9905;52.126;5.596;2023-04-16T09:28:37;22.25;;;13.70;;
19521;SDS011;9905;52.126;5.596;2023-04-16T09:31:11;27.10;;;13.45;;
19521;SDS011;9905;52.126;5.596;2023-04-16T09:33:38;21.25;;;13.25;;
19521;SDS011;9905;52.126;5.596;2023-04-16T09:36:08;17.27;;;13.55;;
19521;SDS011;9905;52.126;5.596;2023-04-16T09:38:44;17.42;;;12.93;;
19521;SDS011;9905;52.126;5.596;2023-04-16T09:41:12;21.35;;;13.88;;
19521;SDS011;9905;52.126;5.596;2023-04-16T09:43:41;24.23;;;13.35;;
19521;SDS011;9905;52.126;5.596;2023-04-16T09:46:14;18.17;;;12.48;;
19521;SDS011;9905;52.126;5.596;2023-04-16T09:48:41;22.52;;;13.27;;
19521;SDS011;9905;52.126;5.596;2023-04-16T09:51:12;16.73;;;11.88;;
19521;SDS011;9905;52.126;5.596;2023-04-16T09:53:39;18.77;;;12.48;;
19521;SDS011;9905;52.126;5.596;2023-04-16T09:56:06;17.65;;;12.85;;
19521;SDS011;9905;52.126;5.596;2023-04-16T09:58:34;16.00;;;11.70;;
19521;SDS011;9905;52.126;5.596;2023-04-16T10:01:02;17.92;;;12.68;;
19521;SDS011;9905;52.126;5.596;2023-04-16T10:03:30;19.60;;;12.00;;
19521;SDS011;9905;52.126;5.596;2023-04-16T10:05:58;17.30;;;12.20;;
19521;SDS011;9905;52.126;5.596;2023-04-16T10:08:28;18.77;;;11.85;;
19521;SDS011;9905;52.126;5.596;2023-04-16T10:10:54;16.15;;;12.50;;
19521;SDS011;9905;52.126;5.596;2023-04-16T10:13:21;18.92;;;11.93;;
19521;SDS011;9905;52.126;5.596;2023-04-16T10:15:51;15.05;;;11.10;;
19521;SDS011;9905;52.126;5.596;2023-04-16T10:18:20;14.98;;;11.20;;
19521;SDS011;9905;52.126;5.596;2023-04-16T10:20:47;14.73;;;11.43;;
19521;SDS011;9905;52.126;5.596;2023-04-16T10:23:15;17.70;;;12.07;;
19521;SDS011;9905;52.126;5.596;2023-04-16T10:25:43;18.00;;;11.88;;
19521;SDS011;9905;52.126;5.596;2023-04-16T10:28:11;20.80;;;12.48;;
19521;SDS011;9905;52.126;5.596;2023-04-16T10:30:39;17.48;;;12.02;;
19521;SDS011;9905;52.126;5.596;2023-04-16T10:33:06;16.45;;;11.77;;
19521;SDS011;9905;52.126;5.596;2023-04-16T10:35:37;21.10;;;13.05;;
19521;SDS011;9905;52.126;5.596;2023-04-16T10:38:19;20.55;;;12.10;;
19521;SDS011;9905;52.126;5.596;2023-04-16T10:40:48;20.75;;;12.32;;
19521;SDS011;9905;52.126;5.596;2023-04-16T10:43:16;20.55;;;12.38;;
19521;SDS011;9905;52.126;5.596;2023-04-16T10:45:43;20.30;;;13.07;;
19521;SDS011;9905;52.126;5.596;2023-04-16T10:48:12;18.98;;;12.88;;
19521;SDS011;9905;52.126;5.596;2023-04-16T10:50:41;20.75;;;13.02;;
19521;SDS011;9905;52.126;5.596;2023-04-16T10:53:17;19.60;;;12.98;;
19521;SDS011;9905;52.126;5.596;2023-04-16T10:58:40;21.77;;;12.88;;
19521;SDS011;9905;52.126;5.596;2023-04-16T11:01:09;17.75;;;11.60;;
19521;SDS011;9905;52.126;5.596;2023-04-16T11:03:41;17.83;;;12.75;;
19521;SDS011;9905;52.126;5.596;2023-04-16T11:06:12;15.57;;;12.27;;
19521;SDS011;9905;52.126;5.596;2023-04-16T11:08:41;16.05;;;11.65;;
19521;SDS011;9905;52.126;5.596;2023-04-16T11:11:11;18.60;;;12.07;;
19521;SDS011;9905;52.126;5.596;2023-04-16T11:13:41;17.50;;;12.02;;
19521;SDS011;9905;52.126;5.596;2023-04-16T11:16:09;19.92;;;12.20;;
19521;SDS011;9905;52.126;5.596;2023-04-16T11:18:37;15.88;;;12.35;;
19521;SDS011;9905;52.126;5.596;2023-04-16T11:21:06;13.13;;;11.50;;
19521;SDS011;9905;52.126;5.596;2023-04-16T11:23:44;14.77;;;12.43;;
19521;SDS011;9905;52.126;5.596;2023-04-16T11:26:18;14.70;;;11.63;;
19521;SDS011;9905;52.126;5.596;2023-04-16T11:28:47;16.80;;;11.98;;
19521;SDS011;9905;52.126;5.596;2023-04-16T11:31:14;17.92;;;11.77;;
19521;SDS011;9905;52.126;5.596;2023-04-16T11:33:41;15.60;;;11.10;;
19521;SDS011;9905;52.126;5.596;2023-04-16T11:36:08;16.95;;;10.95;;
19521;SDS011;9905;52.126;5.596;2023-04-16T11:38:35;17.88;;;11.13;;
19521;SDS011;9905;52.126;5.596;2023-04-16T11:41:02;13.45;;;11.05;;
19521;SDS011;9905;52.126;5.596;2023-04-16T11:43:29;19.35;;;11.82;;
19521;SDS011;9905;52.126;5.596;2023-04-16T11:45:58;19.02;;;11.60;;
19521;SDS011;9905;52.126;5.596;2023-04-16T11:51:11;17.55;;;12.23;;
19521;SDS011;9905;52.126;5.596;2023-04-16T11:53:43;15.07;;;11.82;;
19521;SDS011;9905;52.126;5.596;2023-04-16T11:56:11;15.98;;;12.13;;
19521;SDS011;9905;52.126;5.596;2023-04-16T11:58:38;14.38;;;11.73;;
19521;SDS011;9905;52.126;5.596;2023-04-16T12:01:06;17.75;;;11.80;;
19521;SDS011;9905;52.126;5.596;2023-04-16T12:03:37;12.38;;;11.07;;
19521;SDS011;9905;52.126;5.596;2023-04-16T12:06:08;17.85;;;10.70;;
19521;SDS011;9905;52.126;5.596;2023-04-16T12:08:35;13.35;;;10.75;;
19521;SDS011;9905;52.126;5.596;2023-04-16T12:11:01;19.75;;;11.20;;
19521;SDS011;9905;52.126;5.596;2023-04-16T12:13:28;14.80;;;10.60;;
19521;SDS011;9905;52.126;5.596;2023-04-16T12:15:55;15.30;;;10.77;;
19521;SDS011;9905;52.126;5.596;2023-04-16T12:18:24;14.60;;;10.75;;
19521;SDS011;9905;52.126;5.596;2023-04-16T12:20:51;13.68;;;10.75;;
19521;SDS011;9905;52.126;5.596;2023-04-16T12:23:22;17.33;;;11.45;;
19521;SDS011;9905;52.126;5.596;2023-04-16T12:25:50;16.13;;;11.02;;
19521;SDS011;9905;52.126;5.596;2023-04-16T12:28:25;14.80;;;10.68;;
19521;SDS011;9905;52.126;5.596;2023-04-16T12:30:53;21.40;;;10.73;;
19521;SDS011;9905;52.126;5.596;2023-04-16T12:33:20;19.00;;;11.77;;
19521;SDS011;9905;52.126;5.596;2023-04-16T12:35:49;19.88;;;11.18;;
19521;SDS011;9905;52.126;5.596;2023-04-16T12:38:16;17.83;;;10.80;;
19521;SDS011;9905;52.126;5.596;2023-04-16T12:40:43;12.10;;;10.70;;
19521;SDS011;9905;52.126;5.596;2023-04-16T12:43:10;16.08;;;12.70;;
19521;SDS011;9905;52.126;5.596;2023-04-16T12:45:37;17.38;;;11.45;;
19521;SDS011;9905;52.126;5.596;2023-04-16T12:48:04;19.52;;;12.60;;
19521;SDS011;9905;52.126;5.596;2023-04-16T12:50:31;20.35;;;12.43;;
19521;SDS011;9905;52.126;5.596;2023-04-16T12:52:59;22.38;;;12.77;;
19521;SDS011;9905;52.126;5.596;2023-04-16T12:55:26;17.15;;;12.27;;
19521;SDS011;9905;52.126;5.596;2023-04-16T12:57:53;19.35;;;12.30;;
19521;SDS011;9905;52.126;5.596;2023-04-16T13:00:20;16.58;;;13.00;;
19521;SDS011;9905;52.126;5.596;2023-04-16T13:02:47;19.17;;;12.57;;
19521;SDS011;9905;52.126;5.596;2023-04-16T13:05:13;19.23;;;12.98;;
19521;SDS011;9905;52.126;5.596;2023-04-16T13:07:43;18.55;;;14.40;;
19521;SDS011;9905;52.126;5.596;2023-04-16T13:10:11;19.98;;;12.38;;
19521;SDS011;9905;52.126;5.596;2023-04-16T13:12:38;21.77;;;13.15;;
19521;SDS011;9905;52.126;5.596;2023-04-16T13:15:05;23.67;;;13.18;;
19521;SDS011;9905;52.126;5.596;2023-04-16T13:17:32;18.30;;;12.43;;
19521;SDS011;9905;52.126;5.596;2023-04-16T13:19:59;21.27;;;13.15;;
19521;SDS011;9905;52.126;5.596;2023-04-16T13:22:26;19.45;;;12.75;;
19521;SDS011;9905;52.126;5.596;2023-04-16T13:24:53;18.73;;;11.85;;
19521;SDS011;9905;52.126;5.596;2023-04-16T13:27:21;18.65;;;13.15;;
19521;SDS011;9905;52.126;5.596;2023-04-16T13:29:48;20.05;;;12.88;;
19521;SDS011;9905;52.126;5.596;2023-04-16T13:32:15;18.52;;;12.20;;
19521;SDS011;9905;52.126;5.596;2023-04-16T13:34:42;18.92;;;12.68;;
19521;SDS011;9905;52.126;5.596;2023-04-16T13:37:09;19.90;;;12.65;;
19521;SDS011;9905;52.126;5.596;2023-04-16T13:39:36;14.82;;;11.57;;
19521;SDS011;9905;52.126;5.596;2023-04-16T13:42:03;18.13;;;12.48;;
19521;SDS011;9905;52.126;5.596;2023-04-16T13:44:31;15.13;;;10.82;;
19521;SDS011;9905;52.126;5.596;2023-04-16T13:46:58;16.50;;;11.13;;
19521;SDS011;9905;52.126;5.596;2023-04-16T13:49:24;17.77;;;11.50;;
19521;SDS011;9905;52.126;5.596;2023-04-16T13:51:51;11.77;;;10.38;;
19521;SDS011;9905;52.126;5.596;2023-04-16T13:54:18;14.50;;;11.13;;
19521;SDS011;9905;52.126;5.596;2023-04-16T13:56:45;18.33;;;10.77;;
19521;SDS011;9905;52.126;5.596;2023-04-16T13:59:11;16.15;;;10.73;;
19521;SDS011;9905;52.126;5.596;2023-04-16T14:01:41;13.18;;;10.73;;
19521;SDS011;9905;52.126;5.596;2023-04-16T14:04:07;14.35;;;10.23;;
19521;SDS011;9905;52.126;5.596;2023-04-16T14:06:34;17.02;;;10.95;;
19521;SDS011;9905;52.126;5.596;2023-04-16T14:09:01;14.48;;;10.88;;
19521;SDS011;9905;52.126;5.596;2023-04-16T14:11:28;14.40;;;10.95;;
19521;SDS011;9905;52.126;5.596;2023-04-16T14:13:54;15.38;;;9.93;;
19521;SDS011;9905;52.126;5.596;2023-04-16T14:16:22;18.33;;;11.20;;
19521;SDS011;9905;52.126;5.596;2023-04-16T14:18:50;16.83;;;10.35;;
19521;SDS011;9905;52.126;5.596;2023-04-16T14:21:17;14.65;;;10.52;;
19521;SDS011;9905;52.126;5.596;2023-04-16T14:23:43;13.95;;;10.25;;
19521;SDS011;9905;52.126;5.596;2023-04-16T14:26:10;12.77;;;10.50;;
19521;SDS011;9905;52.126;5.596;2023-04-16T14:28:37;17.05;;;11.23;;
19521;SDS011;9905;52.126;5.596;2023-04-16T14:31:05;18.52;;;11.25;;
19521;SDS011;9905;52.126;5.596;2023-04-16T14:33:31;16.05;;;10.77;;
19521;SDS011;9905;52.126;5.596;2023-04-16T14:35:59;16.90;;;10.77;;
19521;SDS011;9905;52.126;5.596;2023-04-16T14:38:26;17.73;;;10.57;;
19521;SDS011;9905;52.126;5.596;2023-04-16T14:40:53;11.60;;;9.68;;
19521;SDS011;9905;52.126;5.596;2023-04-16T14:43:20;14.68;;;10.45;;
19521;SDS011;9905;52.126;5.596;2023-04-16T14:45:47;16.05;;;10.88;;